createdAt,value
2023-04-13T00:00:14.583Z,63.55
2023-04-13T00:03:18.178Z,63.63
2023-04-13T00:06:20.261Z,63.73
2023-04-13T00:09:21.814Z,63.73
2023-04-13T00:12:23.817Z,63.98
2023-04-13T00:15:25.812Z,64.27
2023-04-13T00:18:27.410Z,64.49
2023-04-13T00:21:29.054Z,64.62
2023-04-13T00:24:31.030Z,64.72
2023-04-13T00:27:32.757Z,64.79
2023-04-13T00:30:34.759Z,64.65
2023-04-13T00:33:39.944Z,64.71
2023-04-13T00:36:41.983Z,64.71
2023-04-13T00:39:44.078Z,64.68
2023-04-13T00:42:46.851Z,64.64
2023-04-13T00:45:48.760Z,64.74
2023-04-13T00:48:50.510Z,64.77
2023-04-13T00:51:52.340Z,64.83
2023-04-13T00:54:56.492Z,64.72
2023-04-13T00:57:59.515Z,64.59
2023-04-13T01:01:01.099Z,64.39
2023-04-13T01:04:02.743Z,64.27
2023-04-13T01:07:32.293Z,64.09
2023-04-13T01:10:39.697Z,63.92
2023-04-13T01:13:47.828Z,63.76
2023-04-13T01:16:56.957Z,63.69
2023-04-13T01:20:01.615Z,63.57
2023-04-13T01:23:09.561Z,63.47
2023-04-13T01:26:11.870Z,63.29
2023-04-13T01:29:14.211Z,63.33
2023-04-13T01:32:16.416Z,63.51
2023-04-13T01:35:20.176Z,63.79
2023-04-13T01:38:24.610Z,63.85
2023-04-13T01:41:28.078Z,63.72
2023-04-13T01:44:31.632Z,63.63
2023-04-13T01:47:34.910Z,63.42
2023-04-13T01:51:01.336Z,63.24
2023-04-13T01:54:24.246Z,63.02
2023-04-13T01:57:26.268Z,63.10
2023-04-13T02:00:35.821Z,62.91
2023-04-13T02:03:40.007Z,62.89
2023-04-13T02:06:42.382Z,62.70
2023-04-13T02:09:45.330Z,62.70
2023-04-13T02:12:47.906Z,62.68
2023-04-13T02:15:49.531Z,62.85
2023-04-13T02:18:51.503Z,63.13
2023-04-13T02:21:53.500Z,63.58
2023-04-13T02:24:55.254Z,64.00
2023-04-13T02:27:57.341Z,64.45
2023-04-13T02:31:03.743Z,64.90
2023-04-13T02:34:05.874Z,65.21
2023-04-13T02:37:09.468Z,65.50
2023-04-13T02:40:12.178Z,65.53
2023-04-13T02:43:14.023Z,65.53
2023-04-13T02:46:16.152Z,65.66
2023-04-13T02:49:18.648Z,65.84
2023-04-13T02:52:29.983Z,65.78
2023-04-13T02:55:36.657Z,65.82
2023-04-13T02:58:41.853Z,65.96
2023-04-13T03:01:49.394Z,66.11
2023-04-13T03:04:52.388Z,66.14
2023-04-13T03:07:55.455Z,66.14
2023-04-13T03:10:57.466Z,66.34
2023-04-13T03:14:01.616Z,66.63
2023-04-13T03:17:04.593Z,66.83
2023-04-13T03:20:13.399Z,67.16
2023-04-13T03:23:16.613Z,67.39
2023-04-13T03:26:18.638Z,67.33
2023-04-13T03:29:20.905Z,67.29
2023-04-13T03:32:22.719Z,67.20
2023-04-13T03:35:30.629Z,67.18
2023-04-13T03:38:34.010Z,67.04
2023-04-13T03:41:35.882Z,67.25
2023-04-13T03:44:37.854Z,67.50
2023-04-13T03:47:40.106Z,67.68
2023-04-13T03:50:42.625Z,67.74
2023-04-13T03:53:46.045Z,67.71
2023-04-13T03:56:47.967Z,67.73
2023-04-13T03:59:49.725Z,67.71
2023-04-13T04:02:55.805Z,67.64
2023-04-13T04:06:03.047Z,67.64
2023-04-13T04:09:05.140Z,67.67
2023-04-13T04:12:15.609Z,67.79
2023-04-13T04:15:18.280Z,68.03
2023-04-13T04:18:20.443Z,68.07
2023-04-13T04:21:22.116Z,68.07
2023-04-13T04:24:24.279Z,68.13
2023-04-13T04:27:29.866Z,68.03
2023-04-13T04:30:35.583Z,68.01
2023-04-13T04:33:41.175Z,67.98
2023-04-13T04:36:45.629Z,68.04
2023-04-13T04:39:48.408Z,68.13
2023-04-13T04:42:51.353Z,68.22
2023-04-13T04:46:19.162Z,68.25
2023-04-13T04:49:28.036Z,68.36
2023-04-13T04:52:33.025Z,68.26
2023-04-13T04:55:35.282Z,68.38
2023-04-13T04:58:37.779Z,68.34
2023-04-13T05:01:39.753Z,68.20
2023-04-13T05:04:46.172Z,68.33
2023-04-13T05:07:48.305Z,68.29
2023-04-13T05:10:49.964Z,68.30
2023-04-13T05:13:55.969Z,68.56
2023-04-13T05:16:59.179Z,68.65
2023-04-13T05:20:08.222Z,68.67
2023-04-13T05:23:17.956Z,68.76
2023-04-13T05:26:25.635Z,68.89
2023-04-13T05:29:27.889Z,68.99
2023-04-13T05:32:29.606Z,69.04
2023-04-13T05:35:32.593Z,69.10
2023-04-13T05:38:35.477Z,69.08
2023-04-13T05:41:37.438Z,69.04
2023-04-13T05:44:39.185Z,68.90
2023-04-13T05:47:40.923Z,68.95
2023-04-13T05:50:46.364Z,68.96
2023-04-13T05:53:48.873Z,69.12
2023-04-13T05:56:50.516Z,69.23
2023-04-13T05:59:53.457Z,69.20
2023-04-13T06:03:01.467Z,69.39
2023-04-13T06:06:04.800Z,69.30
2023-04-13T06:09:06.614Z,69.24
2023-04-13T06:12:09.081Z,69.15
2023-04-13T06:15:10.972Z,69.20
2023-04-13T06:18:12.613Z,69.12
2023-04-13T06:21:14.354Z,69.02
2023-04-13T06:24:15.944Z,68.91
2023-04-13T06:27:18.558Z,69.19
2023-04-13T06:30:22.544Z,69.34
2023-04-13T06:33:27.872Z,69.50
2023-04-13T06:36:31.070Z,69.73
2023-04-13T06:39:37.765Z,69.93
2023-04-13T06:42:41.650Z,70.16
2023-04-13T06:46:16.356Z,70.21
2023-04-13T06:49:20.178Z,70.29
2023-04-13T06:52:25.035Z,70.45
2023-04-13T06:55:28.336Z,70.44
2023-04-13T06:58:30.240Z,70.33
2023-04-13T07:01:33.017Z,70.25
2023-04-13T07:04:35.101Z,70.21
2023-04-13T07:07:38.458Z,70.18
2023-04-13T07:10:41.138Z,70.08
2023-04-13T07:13:48.817Z,70.19
2023-04-13T07:16:51.037Z,70.31
2023-04-13T07:19:52.964Z,70.31
2023-04-13T07:22:55.260Z,70.20
2023-04-13T07:25:56.995Z,70.26
2023-04-13T07:29:00.288Z,70.16
2023-04-13T07:32:06.719Z,70.16
2023-04-13T07:35:08.952Z,69.97
2023-04-13T07:38:11.419Z,69.91
2023-04-13T07:41:13.569Z,69.83
2023-04-13T07:44:16.656Z,69.73
2023-04-13T07:47:18.505Z,69.59
2023-04-13T07:50:20.901Z,69.54
2023-04-13T07:53:22.704Z,69.53
2023-04-13T07:56:24.362Z,69.34
2023-04-13T07:59:27.136Z,69.33
2023-04-13T08:02:30.952Z,69.36
2023-04-13T08:05:36.327Z,69.33
2023-04-13T08:08:38.085Z,69.24
2023-04-13T08:11:39.868Z,69.18
2023-04-13T08:14:42.513Z,68.96
2023-04-13T08:17:44.941Z,68.81
2023-04-13T08:20:47.076Z,68.65
2023-04-13T08:23:52.092Z,68.48
2023-04-13T08:26:55.128Z,68.34
2023-04-13T08:30:01.972Z,68.31
2023-04-13T08:33:10.272Z,68.17
2023-04-13T08:36:12.297Z,68.25
2023-04-13T08:39:14.948Z,68.34
2023-04-13T08:42:18.653Z,68.40
2023-04-13T08:45:20.570Z,68.32
2023-04-13T08:48:23.750Z,68.36
2023-04-13T08:51:26.633Z,68.47
2023-04-13T08:54:28.883Z,68.38
2023-04-13T08:57:31.688Z,68.44
2023-04-13T09:00:33.723Z,68.71
2023-04-13T09:03:45.990Z,69.10
2023-04-13T09:06:50.354Z,69.28
2023-04-13T09:09:58.011Z,69.47
2023-04-13T09:13:00.969Z,69.77
2023-04-13T09:16:02.922Z,69.97
2023-04-13T09:19:31.811Z,70.16
2023-04-13T09:22:33.428Z,70.36
2023-04-13T09:25:35.049Z,70.46
2023-04-13T09:28:56.475Z,70.47
2023-04-13T09:31:58.106Z,70.47
2023-04-13T09:35:06.942Z,70.46
2023-04-13T09:38:08.987Z,70.39
2023-04-13T09:41:10.863Z,70.36
2023-04-13T09:44:20.770Z,70.39
2023-04-13T09:47:22.586Z,70.19
2023-04-13T09:50:28.249Z,70.08
2023-04-13T09:53:43.217Z,70.13
2023-04-13T09:56:52.519Z,70.15
2023-04-13T09:59:55.575Z,70.08
2023-04-13T10:03:01.755Z,69.69
2023-04-13T10:06:07.955Z,69.74
2023-04-13T10:09:10.733Z,69.56
2023-04-13T10:12:13.708Z,69.07
2023-04-13T10:15:36.914Z,68.67
2023-04-13T10:19:00.351Z,68.53
2023-04-13T10:22:04.869Z,68.09
2023-04-13T10:25:08.046Z,67.75
2023-04-13T10:28:10.311Z,67.51
2023-04-13T10:31:12.032Z,67.18
2023-04-13T10:34:28.429Z,66.79
2023-04-13T10:40:47.947Z,65.97
2023-04-13T10:44:00.240Z,65.89
2023-04-13T10:47:06.221Z,65.53
2023-04-13T10:50:27.272Z,65.17
2023-04-13T10:53:31.082Z,64.65
2023-04-13T10:56:32.624Z,64.32
2023-04-13T10:59:55.497Z,64.08
2023-04-13T11:03:00.237Z,63.66
2023-04-13T11:06:02.561Z,63.42
2023-04-13T11:09:07.113Z,63.01
2023-04-13T11:12:09.298Z,62.75
2023-04-13T11:15:11.257Z,62.41
2023-04-13T11:18:12.829Z,62.07
2023-04-13T11:21:16.009Z,61.86
2023-04-13T11:24:24.666Z,61.44
2023-04-13T11:27:27.091Z,61.16
2023-04-13T11:30:28.656Z,60.93
2023-04-13T11:33:31.351Z,60.80
2023-04-13T11:36:33.613Z,60.45
2023-04-13T11:39:36.450Z,59.88
2023-04-13T11:42:43.135Z,59.58
2023-04-13T11:45:47.232Z,59.10
2023-04-13T11:48:48.906Z,58.82
2023-04-13T11:51:51.187Z,58.55
2023-04-13T11:54:53.620Z,58.30
2023-04-13T11:57:55.585Z,58.16
2023-04-13T12:01:03.190Z,58.07
2023-04-13T12:04:15.937Z,57.90
2023-04-13T12:07:19.040Z,57.44
2023-04-13T12:10:38.145Z,57.21
2023-04-13T12:14:06.352Z,57.22
2023-04-13T12:17:36.344Z,56.80
2023-04-13T12:20:39.907Z,56.86
2023-04-13T12:23:54.355Z,56.79
2023-04-13T12:30:03.856Z,56.55
2023-04-13T12:33:05.525Z,56.79
2023-04-13T12:36:11.435Z,56.84
2023-04-13T12:39:13.039Z,57.09
2023-04-13T12:42:14.641Z,57.08
2023-04-13T12:45:16.836Z,57.17
2023-04-13T12:48:19.132Z,57.34
2023-04-13T12:51:20.846Z,57.43
2023-04-13T12:54:22.495Z,57.58
2023-04-13T12:57:24.383Z,57.49
2023-04-13T13:00:26.136Z,57.55
2023-04-13T13:03:27.701Z,57.57
2023-04-13T13:06:29.302Z,57.63
2023-04-13T13:09:30.891Z,57.64
2023-04-13T13:12:32.681Z,57.68
2023-04-13T13:15:34.426Z,57.66
2023-04-13T13:18:49.218Z,57.63
2023-04-13T13:21:52.194Z,57.60
2023-04-13T13:24:53.775Z,57.69
2023-04-13T13:31:02.444Z,57.83
2023-04-13T13:34:04.053Z,57.76
2023-04-13T13:37:05.834Z,58.02
2023-04-13T13:40:13.159Z,57.93
2023-04-13T13:43:15.357Z,58.11
2023-04-13T13:46:17.937Z,58.17
2023-04-13T13:49:19.843Z,57.97
2023-04-13T13:52:48.495Z,57.97
2023-04-13T13:55:58.543Z,57.95
2023-04-13T13:59:00.313Z,57.85
2023-04-13T14:02:02.597Z,57.75
2023-04-13T14:05:04.649Z,57.64
2023-04-13T14:08:06.350Z,57.76
2023-04-13T14:11:07.924Z,57.59
2023-04-13T14:14:20.663Z,57.41
2023-04-13T14:17:24.159Z,57.32
2023-04-13T14:20:25.906Z,57.23
2023-04-13T14:23:27.579Z,57.11
2023-04-13T14:26:29.214Z,56.92
2023-04-13T14:29:30.802Z,57.01
2023-04-13T14:32:32.541Z,57.02
2023-04-13T14:35:34.592Z,56.69
2023-04-13T14:38:36.347Z,56.69
2023-04-13T14:41:37.965Z,56.72
2023-04-13T14:44:39.619Z,56.59
2023-04-13T14:47:41.268Z,56.44
2023-04-13T14:50:42.942Z,56.41
2023-04-13T14:53:44.674Z,56.24
2023-04-13T14:56:46.279Z,56.11
2023-04-13T14:59:47.890Z,55.84
2023-04-13T15:02:50.893Z,55.83
2023-04-13T15:06:01.040Z,55.69
2023-04-13T15:09:05.348Z,55.56
2023-04-13T15:12:13.084Z,55.46
2023-04-13T15:15:15.747Z,55.27
2023-04-13T15:18:17.643Z,54.95
2023-04-13T15:21:19.298Z,54.76
2023-04-13T15:24:20.947Z,54.73
2023-04-13T15:27:26.637Z,54.61
2023-04-13T15:30:30.008Z,54.48
2023-04-13T15:33:31.581Z,54.41
2023-04-13T15:36:33.329Z,54.36
2023-04-13T15:39:35.093Z,54.31
2023-04-13T15:42:36.688Z,54.20
2023-04-13T15:45:38.221Z,54.01
2023-04-13T15:48:39.897Z,54.04
2023-04-13T15:51:41.448Z,53.73
2023-04-13T15:54:43.134Z,53.55
2023-04-13T15:57:44.749Z,53.33
2023-04-13T16:00:46.435Z,53.23
2023-04-13T16:03:48.129Z,52.80
2023-04-13T16:07:05.053Z,52.67
2023-04-13T16:10:16.141Z,52.23
2023-04-13T16:13:20.452Z,52.14
2023-04-13T16:16:23.822Z,51.93
2023-04-13T16:19:25.673Z,51.88
2023-04-13T16:22:27.262Z,51.64
2023-04-13T16:25:29.113Z,51.47
2023-04-13T16:28:30.806Z,51.27
2023-04-13T16:31:32.442Z,51.14
2023-04-13T16:34:34.122Z,50.84
2023-04-13T16:37:35.968Z,51.33
2023-04-13T16:40:37.494Z,51.53
2023-04-13T16:43:39.061Z,51.61
2023-04-13T16:46:40.687Z,51.86
2023-04-13T16:49:42.356Z,52.19
2023-04-13T16:52:44.071Z,52.62
2023-04-13T16:55:50.117Z,53.30
2023-04-13T16:58:52.073Z,53.97
2023-04-13T17:01:53.718Z,54.50
2023-04-13T17:04:55.457Z,54.74
2023-04-13T17:07:57.073Z,55.36
2023-04-13T17:10:58.870Z,55.75
2023-04-13T17:14:00.439Z,56.32
2023-04-13T17:17:02.067Z,56.84
2023-04-13T17:20:04.897Z,57.57
2023-04-13T17:23:06.594Z,58.35
2023-04-13T17:26:08.183Z,58.93
2023-04-13T17:29:09.847Z,59.72
2023-04-13T17:32:16.678Z,60.66
2023-04-13T17:35:18.645Z,61.75
2023-04-13T17:38:20.468Z,62.59
2023-04-13T17:41:22.077Z,63.18
2023-04-13T17:44:23.760Z,64.02
2023-04-13T17:47:25.623Z,64.72
2023-04-13T17:50:27.311Z,65.32
2023-04-13T17:53:28.859Z,65.74
2023-04-13T17:56:30.785Z,66.30
2023-04-13T17:59:32.873Z,66.81
2023-04-13T18:02:34.640Z,67.23
2023-04-13T18:05:36.682Z,67.61
2023-04-13T18:08:38.300Z,67.99
2023-04-13T18:11:40.039Z,68.30
2023-04-13T18:14:41.683Z,68.62
2023-04-13T18:17:43.294Z,68.78
2023-04-13T18:20:45.578Z,69.11
2023-04-13T18:23:47.225Z,69.36
2023-04-13T18:26:48.913Z,69.62
2023-04-13T18:29:50.518Z,69.74
2023-04-13T18:32:52.319Z,70.06
2023-04-13T18:35:54.086Z,70.19
2023-04-13T18:38:55.756Z,70.35
2023-04-13T18:41:57.328Z,70.65
2023-04-13T18:44:58.869Z,70.72
2023-04-13T18:48:00.603Z,70.58
2023-04-13T18:51:03.357Z,70.74
2023-04-13T18:54:05.519Z,70.69
2023-04-13T18:57:07.864Z,70.82
2023-04-13T19:00:13.648Z,71.02
2023-04-13T19:03:15.620Z,71.17
2023-04-13T19:06:17.292Z,71.17
2023-04-13T19:09:19.005Z,71.40
2023-04-13T19:12:20.639Z,71.46
2023-04-13T19:15:22.785Z,71.53
2023-04-13T19:18:24.983Z,71.68
2023-04-13T19:21:27.301Z,71.75
2023-04-13T19:24:29.448Z,72.01
2023-04-13T19:27:31.202Z,72.15
2023-04-13T19:30:32.976Z,72.12
2023-04-13T19:33:35.511Z,72.31
2023-04-13T19:36:37.706Z,72.31
2023-04-13T19:39:39.609Z,72.31
2023-04-13T19:42:42.494Z,72.43
2023-04-13T19:45:44.150Z,72.34
2023-04-13T19:48:48.251Z,72.48
2023-04-13T19:51:49.885Z,72.36
2023-04-13T19:54:51.585Z,72.31
2023-04-13T19:57:53.379Z,72.31
2023-04-13T20:00:57.661Z,72.26
2023-04-13T20:03:59.853Z,72.05
2023-04-13T20:07:01.849Z,72.05
2023-04-13T20:10:04.483Z,71.99
2023-04-13T20:13:05.989Z,71.86
2023-04-13T20:16:08.233Z,71.97
2023-04-13T20:19:10.250Z,71.86
2023-04-13T20:22:13.576Z,71.92
2023-04-13T20:25:15.183Z,71.91
2023-04-13T20:28:17.811Z,71.81
2023-04-13T20:31:19.540Z,71.72
2023-04-13T20:34:21.236Z,71.77
2023-04-13T20:37:23.004Z,71.76
2023-04-13T20:40:27.077Z,71.90
2023-04-13T20:43:28.864Z,71.72
2023-04-13T20:46:34.758Z,71.85
2023-04-13T20:49:37.780Z,71.82
2023-04-13T20:52:42.307Z,71.84
2023-04-13T20:55:43.939Z,71.97
2023-04-13T20:58:47.827Z,72.04
2023-04-13T21:01:49.552Z,72.12
2023-04-13T21:04:51.285Z,72.22
2023-04-13T21:07:53.957Z,72.16
2023-04-13T21:10:57.020Z,72.23
2023-04-13T21:13:58.844Z,72.23
2023-04-13T21:17:00.711Z,72.31
2023-04-13T21:20:02.274Z,72.32
2023-04-13T21:23:03.916Z,72.42
2023-04-13T21:26:05.724Z,72.35
2023-04-13T21:29:07.747Z,72.32
2023-04-13T21:32:09.498Z,72.30
2023-04-13T21:35:11.638Z,72.22
2023-04-13T21:38:13.200Z,72.35
2023-04-13T21:41:16.241Z,72.44
2023-04-13T21:44:29.417Z,72.54
2023-04-13T21:47:31.944Z,72.49
2023-04-13T21:50:33.567Z,72.63
2023-04-13T21:53:36.077Z,72.81
2023-04-13T21:56:37.708Z,72.86
2023-04-13T21:59:40.587Z,72.87
2023-04-13T22:02:42.466Z,72.96
2023-04-13T22:05:44.341Z,73.08
2023-04-13T22:08:45.957Z,73.13
2023-04-13T22:11:47.585Z,73.18
2023-04-13T22:14:49.322Z,73.12
2023-04-13T22:17:50.961Z,73.17
2023-04-13T22:20:52.624Z,73.24
2023-04-13T22:23:54.430Z,73.39
2023-04-13T22:26:56.398Z,73.41
2023-04-13T22:29:57.967Z,73.50
2023-04-13T22:32:59.629Z,73.58
2023-04-13T22:36:04.346Z,73.66
2023-04-13T22:39:05.926Z,73.77
2023-04-13T22:42:07.561Z,73.80
2023-04-13T22:45:09.728Z,73.86
2023-04-13T22:48:11.345Z,73.89
2023-04-13T22:51:12.942Z,74.03
2023-04-13T22:54:14.507Z,74.15
2023-04-13T22:57:16.217Z,74.15
2023-04-13T23:00:20.738Z,74.15
2023-04-13T23:03:22.757Z,74.25
2023-04-13T23:06:25.251Z,74.33
2023-04-13T23:09:26.831Z,74.35
2023-04-13T23:12:28.951Z,74.54
2023-04-13T23:15:30.561Z,74.51
2023-04-13T23:18:32.148Z,74.49
2023-04-13T23:21:33.846Z,74.44
2023-04-13T23:24:35.444Z,74.58
2023-04-13T23:27:37.039Z,74.60
2023-04-13T23:30:38.630Z,74.57
2023-04-13T23:33:40.496Z,74.51
2023-04-13T23:36:42.111Z,74.52
2023-04-13T23:39:43.762Z,74.62
2023-04-13T23:42:45.485Z,74.58
2023-04-13T23:45:50.353Z,74.56
2023-04-13T23:48:52.030Z,74.66
2023-04-13T23:51:53.590Z,74.71
2023-04-13T23:54:55.224Z,74.64
2023-04-13T23:57:56.847Z,74.62
